Time;durP1;ratioP1;P1;durP2;ratioP2;P2;SDS_P1;SDS_P2;PMS_P1;PMS_P2;Temp;Humidity;BMP_temperature;BMP_pressure;BME280_temperature;BME280_humidity;BME280_pressure;Samples;Min_cycle;Max_cycle;Signal;HPM_P1;HPM_P2
2022/01/02 00:01:51;;;;;;;0.50;0.50;;;;;;;;;;5034307;28;20175;-63
2022/01/02 00:04:18;;;;;;;0.50;0.50;;;;;;;;;;5016066;28;20709;-63
2022/01/02 00:06:46;;;;;;;0.50;0.50;;;;;;;;;;5016508;28;20194;-63
2022/01/02 00:09:15;;;;;;;0.50;0.50;;;;;;;;;;5034245;28;20255;-63
2022/01/02 00:11:42;;;;;;;0.50;0.50;;;;;;;;;;5034239;28;20548;-63
2022/01/02 00:14:12;;;;;;;0.50;0.50;;;;;;;;;;5034085;28;20192;-63
2022/01/02 00:16:38;;;;;;;0.50;0.50;;;;;;;;;;5016284;28;20214;-63
2022/01/02 00:19:17;;;;;;;0.50;0.50;;;;;;;;;;5034111;28;20193;-63
2022/01/02 00:21:45;;;;;;;0.50;0.50;;;;;;;;;;5034096;28;20180;-63
2022/01/02 00:24:16;;;;;;;0.40;0.40;;;;;;;;;;5033755;28;20204;-63
2022/01/02 00:26:46;;;;;;;0.50;0.50;;;;;;;;;;5033891;28;20250;-63
2022/01/02 00:29:13;;;;;;;0.50;0.50;;;;;;;;;;5034016;28;20314;-63
2022/01/02 00:31:40;;;;;;;0.50;0.50;;;;;;;;;;5033784;28;20183;-63
2022/01/02 00:34:07;;;;;;;0.50;0.50;;;;;;;;;;5033493;28;20569;-63
2022/01/02 00:36:33;;;;;;;0.40;0.40;;;;;;;;;;5033703;28;20613;-63
2022/01/02 00:38:59;;;;;;;0.40;0.40;;;;;;;;;;5033692;28;20538;-63
2022/01/02 00:41:51;;;;;;;0.50;0.50;;;;;;;;;;5033539;28;20168;-63
2022/01/02 00:44:29;;;;;;;0.50;0.50;;;;;;;;;;5012714;28;20430;-63
2022/01/02 00:46:58;;;;;;;0.50;0.50;;;;;;;;;;5015737;28;20525;-63
2022/01/02 00:49:25;;;;;;;0.50;0.50;;;;;;;;;;5033446;28;20186;-63
2022/01/02 00:51:54;;;;;;;0.60;0.60;;;;;;;;;;5033369;28;20168;-63
2022/01/02 00:54:22;;;;;;;0.50;0.50;;;;;;;;;;5033074;28;20196;-63
2022/01/02 00:56:52;;;;;;;0.50;0.50;;;;;;;;;;5033202;28;20208;-63
2022/01/02 00:59:28;;;;;;;0.45;0.45;;;;;;;;;;5033381;28;20187;-63
2022/01/02 01:02:03;;;;;;;0.50;0.50;;;;;;;;;;5033269;28;20381;-63
2022/01/02 01:04:33;;;;;;;0.50;0.50;;;;;;;;;;5032642;28;20212;-63
2022/01/02 01:07:05;;;;;;;0.40;0.40;;;;;;;;;;5033150;28;20259;-63
2022/01/02 01:09:32;;;;;;;0.50;0.50;;;;;;;;;;5033235;28;20195;-63
2022/01/02 01:11:59;;;;;;;0.60;0.60;;;;;;;;;;5033063;28;20664;-63
2022/01/02 01:14:25;;;;;;;0.40;0.40;;;;;;;;;;5014981;28;20193;-63
2022/01/02 01:16:52;;;;;;;0.50;0.50;;;;;;;;;;5032812;28;20208;-63
2022/01/02 01:19:18;;;;;;;0.50;0.50;;;;;;;;;;5033094;28;20251;-63
2022/01/02 01:21:44;;;;;;;0.50;0.50;;;;;;;;;;5015030;28;20175;-63
2022/01/02 01:24:10;;;;;;;0.50;0.50;;;;;;;;;;5032883;28;20697;-63
2022/01/02 01:26:37;;;;;;;0.50;0.50;;;;;;;;;;5033056;28;20414;-63
2022/01/02 01:29:03;;;;;;;0.50;0.50;;;;;;;;;;5032984;28;20909;-63
2022/01/02 01:31:29;;;;;;;0.50;0.50;;;;;;;;;;5032719;28;20194;-63
2022/01/02 01:33:55;;;;;;;0.40;0.40;;;;;;;;;;5031865;28;20838;-63
2022/01/02 01:36:21;;;;;;;0.50;0.50;;;;;;;;;;5032094;28;20299;-63
2022/01/02 01:38:47;;;;;;;0.50;0.50;;;;;;;;;;5014100;28;20466;-63
2022/01/02 01:41:18;;;;;;;0.50;0.50;;;;;;;;;;5032557;28;20418;-63
2022/01/02 01:44:05;;;;;;;0.50;0.50;;;;;;;;;;5032225;28;20430;-63
2022/01/02 01:46:32;;;;;;;0.50;0.50;;;;;;;;;;5032323;28;20243;-63
2022/01/02 01:48:58;;;;;;;0.40;0.40;;;;;;;;;;5032383;28;20238;-63
2022/01/02 01:51:24;;;;;;;0.50;0.50;;;;;;;;;;5032319;28;20597;-63
2022/01/02 01:53:50;;;;;;;0.50;0.50;;;;;;;;;;5032028;28;20938;-63
2022/01/02 01:56:16;;;;;;;0.40;0.40;;;;;;;;;;5032145;28;20207;-63
2022/01/02 01:58:43;;;;;;;0.40;0.40;;;;;;;;;;5032153;28;20259;-63
2022/01/02 02:01:08;;;;;;;0.50;0.50;;;;;;;;;;5032143;28;20176;-63
2022/01/02 02:03:34;;;;;;;0.50;0.50;;;;;;;;;;5031483;28;20211;-63
2022/01/02 02:06:01;;;;;;;0.40;0.40;;;;;;;;;;5032209;28;20438;-63
2022/01/02 02:08:27;;;;;;;0.50;0.50;;;;;;;;;;5014280;28;20422;-63
2022/01/02 02:10:57;;;;;;;0.40;0.40;;;;;;;;;;5031888;28;20547;-63
2022/01/02 02:13:24;;;;;;;0.50;0.50;;;;;;;;;;5031867;28;20191;-63
2022/01/02 02:15:50;;;;;;;0.50;0.50;;;;;;;;;;5031820;28;20200;-63
2022/01/02 02:18:16;;;;;;;0.50;0.50;;;;;;;;;;5031889;28;20173;-63
2022/01/02 02:20:43;;;;;;;0.50;0.50;;;;;;;;;;5031830;28;20179;-63
2022/01/02 02:23:09;;;;;;;0.50;0.50;;;;;;;;;;5031611;28;20231;-63
2022/01/02 02:25:36;;;;;;;0.50;0.50;;;;;;;;;;5031755;28;20184;-63
2022/01/02 02:28:04;;;;;;;0.50;0.50;;;;;;;;;;5031848;28;20522;-63
2022/01/02 02:30:31;;;;;;;0.50;0.50;;;;;;;;;;5031591;28;20169;-63
2022/01/02 02:32:58;;;;;;;0.50;0.50;;;;;;;;;;5031464;28;20260;-63
2022/01/02 02:35:25;;;;;;;0.50;0.50;;;;;;;;;;5031464;28;20587;-63
2022/01/02 02:37:51;;;;;;;0.50;0.50;;;;;;;;;;5031782;28;20176;-63
2022/01/02 02:40:18;;;;;;;0.50;0.50;;;;;;;;;;5031597;28;20253;-63
2022/01/02 02:42:58;;;;;;;0.50;0.50;;;;;;;;;;5031318;28;20483;-63
2022/01/02 02:50:58;;;;;;;0.50;0.50;;;;;;;;;;5034015;28;20258;-63
2022/01/02 02:53:24;;;;;;;0.50;0.50;;;;;;;;;;5035349;28;20222;-63
2022/01/02 02:55:55;;;;;;;0.53;0.53;;;;;;;;;;5035554;28;20251;-63
2022/01/02 03:00:59;;;;;;;0.50;0.50;;;;;;;;;;5035515;28;20168;-63
2022/01/02 03:03:25;;;;;;;0.57;0.57;;;;;;;;;;5035138;28;20214;-63
2022/01/02 03:05:51;;;;;;;0.50;0.50;;;;;;;;;;5035746;28;20650;-63
2022/01/02 03:08:17;;;;;;;0.50;0.50;;;;;;;;;;5035280;28;20267;-63
2022/01/02 03:10:43;;;;;;;0.60;0.60;;;;;;;;;;5035348;28;20210;-63
2022/01/02 03:13:09;;;;;;;0.60;0.60;;;;;;;;;;5034183;28;20418;-63
2022/01/02 03:15:35;;;;;;;0.50;0.50;;;;;;;;;;5035182;28;20203;-64
2022/01/02 03:18:01;;;;;;;0.50;0.50;;;;;;;;;;5035231;28;20417;-63
2022/01/02 03:20:27;;;;;;;0.50;0.50;;;;;;;;;;5035231;28;20408;-64
2022/01/02 03:22:53;;;;;;;0.50;0.50;;;;;;;;;;5034873;28;20416;-64
2022/01/02 03:25:19;;;;;;;0.50;0.50;;;;;;;;;;5034975;28;20552;-63
2022/01/02 03:27:45;;;;;;;0.60;0.60;;;;;;;;;;5035084;28;20425;-63
2022/01/02 03:30:12;;;;;;;0.50;0.50;;;;;;;;;;5035032;28;20183;-63
2022/01/02 03:32:38;;;;;;;0.60;0.60;;;;;;;;;;5034969;28;20270;-63
2022/01/02 03:35:04;;;;;;;0.50;0.50;;;;;;;;;;5035136;28;20196;-64
2022/01/02 03:37:33;;;;;;;0.50;0.50;;;;;;;;;;5035101;28;20169;-63
2022/01/02 03:39:59;;;;;;;0.50;0.50;;;;;;;;;;5035295;28;20172;-63
2022/01/02 03:42:25;;;;;;;0.50;0.50;;;;;;;;;;5034849;28;20187;-63
2022/01/02 03:44:51;;;;;;;0.60;0.60;;;;;;;;;;5034514;28;20203;-63
2022/01/02 03:47:17;;;;;;;0.50;0.50;;;;;;;;;;5034688;28;20798;-63
2022/01/02 03:49:43;;;;;;;0.50;0.50;;;;;;;;;;5034510;28;20415;-63
2022/01/02 03:52:09;;;;;;;0.50;0.50;;;;;;;;;;5034496;28;20184;-63
2022/01/02 03:54:35;;;;;;;0.50;0.50;;;;;;;;;;5034312;28;20437;-63
2022/01/02 03:57:01;;;;;;;0.50;0.50;;;;;;;;;;5034266;28;20466;-63
2022/01/02 03:59:27;;;;;;;0.50;0.50;;;;;;;;;;5034408;28;20203;-63
2022/01/02 04:01:53;;;;;;;0.50;0.50;;;;;;;;;;5033461;28;20278;-63
2022/01/02 04:04:19;;;;;;;0.50;0.50;;;;;;;;;;5056738;22;20317;-62
2022/01/02 04:06:45;;;;;;;0.50;0.50;;;;;;;;;;5034247;28;20410;-62
2022/01/02 04:09:11;;;;;;;0.50;0.50;;;;;;;;;;5034221;28;20408;-62
2022/01/02 04:11:37;;;;;;;0.50;0.50;;;;;;;;;;5034140;28;20411;-61
2022/01/02 04:14:03;;;;;;;0.50;0.50;;;;;;;;;;5033751;28;20525;-60
2022/01/02 04:16:29;;;;;;;0.50;0.50;;;;;;;;;;5034068;28;20454;-61
2022/01/02 04:18:55;;;;;;;0.50;0.50;;;;;;;;;;5034110;28;20443;-61
2022/01/02 04:21:21;;;;;;;0.60;0.60;;;;;;;;;;5034132;28;20406;-60
2022/01/02 04:23:46;;;;;;;0.50;0.50;;;;;;;;;;5033554;28;20422;-61
2022/01/02 04:26:12;;;;;;;0.50;0.50;;;;;;;;;;5033806;28;20836;-60
2022/01/02 04:28:38;;;;;;;0.50;0.50;;;;;;;;;;5033799;28;20752;-61
2022/01/02 04:31:04;;;;;;;0.50;0.50;;;;;;;;;;5034016;28;20833;-61
2022/01/02 04:33:30;;;;;;;0.57;0.57;;;;;;;;;;5033469;28;20898;-61
2022/01/02 04:35:56;;;;;;;0.50;0.50;;;;;;;;;;5015941;28;20207;-59
2022/01/02 04:38:22;;;;;;;0.50;0.50;;;;;;;;;;5033708;28;20469;-61
2022/01/02 04:40:48;;;;;;;0.60;0.60;;;;;;;;;;5033681;28;20489;-60
2022/01/02 04:43:15;;;;;;;0.50;0.50;;;;;;;;;;5033290;28;20169;-59
2022/01/02 04:45:41;;;;;;;0.60;0.60;;;;;;;;;;5033501;28;20231;-61
2022/01/02 04:48:07;;;;;;;0.50;0.50;;;;;;;;;;5033449;28;20218;-61
2022/01/02 04:50:32;;;;;;;0.50;0.50;;;;;;;;;;5033487;28;20423;-61
2022/01/02 04:52:58;;;;;;;0.60;0.60;;;;;;;;;;5033269;28;20537;-61
2022/01/02 04:55:24;;;;;;;0.50;0.50;;;;;;;;;;5033335;28;20458;-62
2022/01/02 04:57:50;;;;;;;0.50;0.50;;;;;;;;;;5033123;28;20180;-61
2022/01/02 05:00:16;;;;;;;0.50;0.50;;;;;;;;;;5033367;28;20408;-61
2022/01/02 05:02:42;;;;;;;0.50;0.50;;;;;;;;;;5033112;28;20407;-61
2022/01/02 05:05:08;;;;;;;0.50;0.50;;;;;;;;;;5033435;28;20220;-62
2022/01/02 05:07:34;;;;;;;0.50;0.50;;;;;;;;;;5033695;28;20497;-62
2022/01/02 05:10:00;;;;;;;0.50;0.50;;;;;;;;;;5033328;28;20173;-61
2022/01/02 05:12:27;;;;;;;0.50;0.50;;;;;;;;;;5032802;28;20165;-62
2022/01/02 05:14:53;;;;;;;0.50;0.50;;;;;;;;;;5036576;28;20203;-62
2022/01/02 05:17:19;;;;;;;0.50;0.50;;;;;;;;;;5033270;28;20185;-60
2022/01/02 05:19:45;;;;;;;0.50;0.50;;;;;;;;;;5033261;28;20202;-61
2022/01/02 05:22:11;;;;;;;0.50;0.50;;;;;;;;;;5032958;28;20255;-59
2022/01/02 05:24:37;;;;;;;0.50;0.50;;;;;;;;;;5032787;28;20431;-61
2022/01/02 05:27:03;;;;;;;0.45;0.45;;;;;;;;;;5033186;28;20487;-61
2022/01/02 05:29:29;;;;;;;0.50;0.50;;;;;;;;;;5032837;28;20179;-62
2022/01/02 05:31:55;;;;;;;0.50;0.50;;;;;;;;;;5032782;28;20182;-61
2022/01/02 05:34:21;;;;;;;0.50;0.50;;;;;;;;;;5032477;28;20438;-61
2022/01/02 05:36:50;;;;;;;0.50;0.50;;;;;;;;;;5032524;28;20875;-61
2022/01/02 05:39:17;;;;;;;0.50;0.50;;;;;;;;;;5032662;28;20175;-61
2022/01/02 05:41:43;;;;;;;0.50;0.50;;;;;;;;;;5032347;28;20172;-62
2022/01/02 05:44:09;;;;;;;0.50;0.50;;;;;;;;;;5032321;28;20194;-60
2022/01/02 05:46:35;;;;;;;0.50;0.50;;;;;;;;;;5032505;28;20182;-60
2022/01/02 05:49:01;;;;;;;0.50;0.50;;;;;;;;;;5032492;28;20422;-61
2022/01/02 05:51:27;;;;;;;0.50;0.50;;;;;;;;;;5032714;28;20411;-61
2022/01/02 05:53:53;;;;;;;0.40;0.40;;;;;;;;;;5032091;28;20458;-61
2022/01/02 05:56:19;;;;;;;0.50;0.50;;;;;;;;;;5032083;28;20461;-62
2022/01/02 05:58:45;;;;;;;0.40;0.40;;;;;;;;;;5032482;28;20414;-61
2022/01/02 06:01:11;;;;;;;0.50;0.50;;;;;;;;;;5032606;28;20478;-62
2022/01/02 06:03:37;;;;;;;0.50;0.50;;;;;;;;;;5031796;28;20422;-62
2022/01/02 06:06:03;;;;;;;0.50;0.50;;;;;;;;;;5032144;28;20843;-61
2022/01/02 06:08:29;;;;;;;0.50;0.50;;;;;;;;;;5032040;28;20454;-62
2022/01/02 06:10:55;;;;;;;0.50;0.50;;;;;;;;;;5031939;28;20176;-59
2022/01/02 06:13:21;;;;;;;0.50;0.50;;;;;;;;;;5031788;28;20211;-62
2022/01/02 06:15:47;;;;;;;0.50;0.50;;;;;;;;;;5031938;28;20733;-62
2022/01/02 06:18:13;;;;;;;0.50;0.50;;;;;;;;;;5031998;28;20211;-62
2022/01/02 06:20:39;;;;;;;0.50;0.50;;;;;;;;;;5031975;28;20211;-59
2022/01/02 06:23:05;;;;;;;0.60;0.60;;;;;;;;;;5031655;28;20830;-61
2022/01/02 06:25:31;;;;;;;0.50;0.50;;;;;;;;;;5031296;28;20235;-60
2022/01/02 06:27:57;;;;;;;0.50;0.50;;;;;;;;;;5031747;28;20402;-62
2022/01/02 06:30:23;;;;;;;0.50;0.50;;;;;;;;;;5031761;28;20203;-61
2022/01/02 06:32:54;;;;;;;0.50;0.50;;;;;;;;;;5031583;28;20175;-61
2022/01/02 06:35:21;;;;;;;0.40;0.40;;;;;;;;;;5031730;28;20568;-60
2022/01/02 06:37:47;;;;;;;0.50;0.50;;;;;;;;;;5031537;28;20176;-62
2022/01/02 06:40:13;;;;;;;0.50;0.50;;;;;;;;;;5031613;28;20326;-60
2022/01/02 06:42:39;;;;;;;0.50;0.50;;;;;;;;;;5031572;28;20884;-61
2022/01/02 06:45:05;;;;;;;0.60;0.60;;;;;;;;;;5031604;28;20437;-62
2022/01/02 06:47:31;;;;;;;0.60;0.60;;;;;;;;;;5031611;28;20254;-59
2022/01/02 06:49:57;;;;;;;0.50;0.50;;;;;;;;;;5031637;28;20651;-60
2022/01/02 06:52:23;;;;;;;0.50;0.50;;;;;;;;;;5031378;28;20488;-61
2022/01/02 06:54:53;;;;;;;0.50;0.50;;;;;;;;;;5013665;28;20200;-61
2022/01/02 06:57:19;;;;;;;0.60;0.60;;;;;;;;;;5031497;28;20458;-61
2022/01/02 06:59:45;;;;;;;0.50;0.50;;;;;;;;;;5014065;28;20176;-61
2022/01/02 07:02:11;;;;;;;0.50;0.50;;;;;;;;;;5031497;28;20382;-61
2022/01/02 07:04:37;;;;;;;0.50;0.50;;;;;;;;;;5031139;28;20447;-61
2022/01/02 07:07:03;;;;;;;0.50;0.50;;;;;;;;;;5031275;28;20450;-61
2022/01/02 07:09:31;;;;;;;0.50;0.50;;;;;;;;;;5031367;28;20430;-61
2022/01/02 07:11:57;;;;;;;0.50;0.50;;;;;;;;;;5031422;28;20176;-60
2022/01/02 07:14:26;;;;;;;0.50;0.50;;;;;;;;;;5031163;28;20205;-60
2022/01/02 07:16:52;;;;;;;0.50;0.50;;;;;;;;;;5031119;28;20454;-60
2022/01/02 07:19:19;;;;;;;0.50;0.50;;;;;;;;;;5031334;28;20210;-62
2022/01/02 07:21:45;;;;;;;0.50;0.50;;;;;;;;;;5031270;28;20171;-61
2022/01/02 07:24:11;;;;;;;0.50;0.50;;;;;;;;;;5031205;28;20196;-62
2022/01/02 07:26:37;;;;;;;0.50;0.50;;;;;;;;;;5031156;28;20412;-61
2022/01/02 07:29:03;;;;;;;0.50;0.50;;;;;;;;;;5031269;28;20443;-60
2022/01/02 07:31:29;;;;;;;0.60;0.60;;;;;;;;;;5031162;28;20434;-61
2022/01/02 07:33:55;;;;;;;0.50;0.50;;;;;;;;;;5030837;28;20485;-60
2022/01/02 07:36:21;;;;;;;0.50;0.50;;;;;;;;;;5031033;28;20495;-61
2022/01/02 07:38:47;;;;;;;0.50;0.50;;;;;;;;;;5034653;28;20408;-61
2022/01/02 07:41:14;;;;;;;0.50;0.50;;;;;;;;;;5034799;28;20408;-61
2022/01/02 07:43:39;;;;;;;0.50;0.50;;;;;;;;;;5034609;28;20181;-59
2022/01/02 07:46:05;;;;;;;0.50;0.50;;;;;;;;;;5034858;28;20200;-61
2022/01/02 07:48:31;;;;;;;0.50;0.50;;;;;;;;;;5034695;28;20789;-62
2022/01/02 07:50:57;;;;;;;0.40;0.40;;;;;;;;;;5034622;28;20415;-61
2022/01/02 07:53:23;;;;;;;0.40;0.40;;;;;;;;;;5034264;28;20256;-61
2022/01/02 07:55:49;;;;;;;0.50;0.50;;;;;;;;;;5034456;28;20291;-62
2022/01/02 07:58:15;;;;;;;0.40;0.40;;;;;;;;;;5034647;28;20419;-60
2022/01/02 08:00:41;;;;;;;0.60;0.60;;;;;;;;;;5034525;28;20414;-62
2022/01/02 08:03:08;;;;;;;0.50;0.50;;;;;;;;;;5034233;28;20439;-60
2022/01/02 08:05:34;;;;;;;0.50;0.50;;;;;;;;;;5033695;28;20458;-61
2022/01/02 08:08:00;;;;;;;0.50;0.50;;;;;;;;;;5034309;28;20188;-60
2022/01/02 08:10:27;;;;;;;0.50;0.50;;;;;;;;;;5034378;28;20465;-62
2022/01/02 08:12:53;;;;;;;0.50;0.50;;;;;;;;;;5034006;28;20779;-61
2022/01/02 08:15:19;;;;;;;0.50;0.50;;;;;;;;;;5033857;28;20212;-62
2022/01/02 08:17:45;;;;;;;0.60;0.60;;;;;;;;;;5034169;28;20211;-62
2022/01/02 08:20:11;;;;;;;0.50;0.50;;;;;;;;;;5034131;28;20208;-60
2022/01/02 08:22:37;;;;;;;0.50;0.50;;;;;;;;;;5035432;28;20410;-60
2022/01/02 08:25:03;;;;;;;0.50;0.50;;;;;;;;;;5034009;28;20427;-58
2022/01/02 08:27:30;;;;;;;0.50;0.50;;;;;;;;;;5033783;28;20774;-60
2022/01/02 08:29:56;;;;;;;0.50;0.50;;;;;;;;;;5033925;28;20168;-60
2022/01/02 08:32:22;;;;;;;0.50;0.50;;;;;;;;;;5033770;28;20299;-61
2022/01/02 08:34:48;;;;;;;0.50;0.50;;;;;;;;;;5033634;28;20447;-60
2022/01/02 08:37:15;;;;;;;0.50;0.50;;;;;;;;;;5033589;28;20459;-61
2022/01/02 08:39:42;;;;;;;0.40;0.40;;;;;;;;;;5033837;28;20403;-62
2022/01/02 08:42:08;;;;;;;0.50;0.50;;;;;;;;;;5033652;28;20212;-62
2022/01/02 08:44:34;;;;;;;0.50;0.50;;;;;;;;;;5033363;28;20219;-60
2022/01/02 08:47:00;;;;;;;0.40;0.40;;;;;;;;;;5033655;28;20646;-62
2022/01/02 08:49:26;;;;;;;0.50;0.50;;;;;;;;;;5033253;28;20416;-60
2022/01/02 08:51:54;;;;;;;0.50;0.50;;;;;;;;;;5033528;28;20419;-62
2022/01/02 08:54:20;;;;;;;0.50;0.50;;;;;;;;;;5033078;28;20271;-60
2022/01/02 08:56:46;;;;;;;0.40;0.40;;;;;;;;;;5033305;28;20625;-62
2022/01/02 08:59:12;;;;;;;0.40;0.40;;;;;;;;;;5033357;28;20837;-60
2022/01/02 09:01:38;;;;;;;0.50;0.50;;;;;;;;;;5033342;28;20407;-62
2022/01/02 09:04:04;;;;;;;0.50;0.50;;;;;;;;;;5032828;28;20447;-59
2022/01/02 09:06:30;;;;;;;0.50;0.50;;;;;;;;;;5033147;28;20450;-61
2022/01/02 09:08:56;;;;;;;0.50;0.50;;;;;;;;;;5033192;28;20519;-62
2022/01/02 09:11:23;;;;;;;0.50;0.50;;;;;;;;;;5033047;28;20419;-61
2022/01/02 09:13:49;;;;;;;0.40;0.40;;;;;;;;;;5032731;28;20942;-62
2022/01/02 09:16:15;;;;;;;0.50;0.50;;;;;;;;;;5015250;28;20209;-62
2022/01/02 09:18:41;;;;;;;0.50;0.50;;;;;;;;;;5032981;28;20191;-60
2022/01/02 09:21:07;;;;;;;0.40;0.40;;;;;;;;;;5032912;28;20465;-61
2022/01/02 09:23:33;;;;;;;0.43;0.43;;;;;;;;;;5032813;28;20403;-62
2022/01/02 09:25:59;;;;;;;0.47;0.47;;;;;;;;;;5032796;28;20494;-62
2022/01/02 09:28:25;;;;;;;0.40;0.40;;;;;;;;;;5032868;28;20887;-62
2022/01/02 09:30:51;;;;;;;0.50;0.50;;;;;;;;;;5032710;28;20469;-61
2022/01/02 09:33:17;;;;;;;0.50;0.50;;;;;;;;;;5032566;28;20407;-61
2022/01/02 09:35:43;;;;;;;0.40;0.40;;;;;;;;;;5032519;28;20459;-62
2022/01/02 09:38:09;;;;;;;0.40;0.40;;;;;;;;;;5032642;28;20812;-62
2022/01/02 09:40:36;;;;;;;0.50;0.50;;;;;;;;;;5032418;28;20173;-62
2022/01/02 09:43:02;;;;;;;0.50;0.50;;;;;;;;;;5032646;28;20323;-62
2022/01/02 09:45:28;;;;;;;0.50;0.50;;;;;;;;;;5032495;28;20196;-62
2022/01/02 09:47:54;;;;;;;0.40;0.40;;;;;;;;;;5032430;28;20181;-62
2022/01/02 09:50:20;;;;;;;0.50;0.50;;;;;;;;;;5031448;28;20234;-62
2022/01/02 09:52:46;;;;;;;0.50;0.50;;;;;;;;;;5032007;28;20779;-62
2022/01/02 09:55:12;;;;;;;0.50;0.50;;;;;;;;;;5032076;28;20203;-62
2022/01/02 09:57:42;;;;;;;0.50;0.50;;;;;;;;;;5032318;28;20537;-62
2022/01/02 10:00:08;;;;;;;0.50;0.50;;;;;;;;;;5031574;28;20408;-62
2022/01/02 10:02:53;;;;;;;0.40;0.40;;;;;;;;;;5031982;28;20169;-62
2022/01/02 10:05:21;;;;;;;0.40;0.40;;;;;;;;;;5044028;22;20228;-64
2022/01/02 10:07:47;;;;;;;0.50;0.50;;;;;;;;;;5012243;28;20181;-64
2022/01/02 10:10:13;;;;;;;0.50;0.50;;;;;;;;;;5012238;28;20527;-64
2022/01/02 10:12:39;;;;;;;0.50;0.50;;;;;;;;;;5011510;28;20985;-64
2022/01/02 10:15:16;;;;;;;0.40;0.40;;;;;;;;;;5012193;28;20225;-64
2022/01/02 10:18:00;;;;;;;0.43;0.43;;;;;;;;;;5012217;28;20887;-64
2022/01/02 10:20:26;;;;;;;0.40;0.40;;;;;;;;;;5012197;28;20177;-64
2022/01/02 10:23:04;;;;;;;0.40;0.40;;;;;;;;;;5011920;28;20176;-64
2022/01/02 10:25:57;;;;;;;0.40;0.40;;;;;;;;;;5012024;28;20215;-63
2022/01/02 10:28:39;;;;;;;0.40;0.40;;;;;;;;;;5007776;28;20213;-64
2022/01/02 10:31:15;;;;;;;0.40;0.40;;;;;;;;;;4992397;28;20187;-64
2022/01/02 10:34:00;;;;;;;0.40;0.40;;;;;;;;;;5011341;28;20173;-64
2022/01/02 10:36:36;;;;;;;0.40;0.40;;;;;;;;;;4994233;28;20680;-64
2022/01/02 10:39:07;;;;;;;0.40;0.40;;;;;;;;;;5012003;28;20169;-64
2022/01/02 10:41:38;;;;;;;0.40;0.40;;;;;;;;;;5011815;28;20173;-64
2022/01/02 10:44:20;;;;;;;0.40;0.40;;;;;;;;;;5011602;28;20192;-64
2022/01/02 10:47:05;;;;;;;0.50;0.50;;;;;;;;;;5011067;28;20201;-64
2022/01/02 10:49:46;;;;;;;0.40;0.40;;;;;;;;;;5011865;28;20177;-64
2022/01/02 10:52:18;;;;;;;0.50;0.50;;;;;;;;;;5011726;28;20201;-64
2022/01/02 10:54:44;;;;;;;0.50;0.50;;;;;;;;;;5011528;28;20201;-64
2022/01/02 10:57:10;;;;;;;0.50;0.50;;;;;;;;;;5011330;28;20197;-64
2022/01/02 10:59:37;;;;;;;0.50;0.50;;;;;;;;;;4993933;28;20580;-63
2022/01/02 11:02:03;;;;;;;0.50;0.50;;;;;;;;;;5011707;28;20174;-64
2022/01/02 11:04:30;;;;;;;0.50;0.50;;;;;;;;;;5011076;28;20209;-63
2022/01/02 11:06:58;;;;;;;0.50;0.50;;;;;;;;;;4994208;28;20727;-63
2022/01/02 11:09:24;;;;;;;0.45;0.45;;;;;;;;;;5011193;28;20633;-64
2022/01/02 11:11:51;;;;;;;0.40;0.40;;;;;;;;;;5014714;28;20178;-64
2022/01/02 11:14:16;;;;;;;0.40;0.40;;;;;;;;;;5016466;28;20300;-64
2022/01/02 11:16:43;;;;;;;0.40;0.40;;;;;;;;;;5016995;28;20205;-64
2022/01/02 11:19:11;;;;;;;0.40;0.40;;;;;;;;;;5016024;28;20419;-64
2022/01/02 11:21:38;;;;;;;0.50;0.50;;;;;;;;;;5016019;28;20529;-64
2022/01/02 11:24:18;;;;;;;0.40;0.40;;;;;;;;;;5015230;28;20177;-64
2022/01/02 11:26:49;;;;;;;0.40;0.40;;;;;;;;;;5015616;28;20181;-64
2022/01/02 11:29:15;;;;;;;0.40;0.40;;;;;;;;;;5015372;28;20179;-64
2022/01/02 11:31:43;;;;;;;0.40;0.40;;;;;;;;;;5015235;28;20205;-64
2022/01/02 11:34:23;;;;;;;0.40;0.40;;;;;;;;;;5015168;28;20696;-64
2022/01/02 11:36:49;;;;;;;0.40;0.40;;;;;;;;;;5015339;28;20219;-64
2022/01/02 11:39:15;;;;;;;0.40;0.40;;;;;;;;;;5015646;28;20173;-64
2022/01/02 11:41:41;;;;;;;0.40;0.40;;;;;;;;;;5015725;28;20220;-64
2022/01/02 11:44:11;;;;;;;0.40;0.40;;;;;;;;;;5014903;28;20407;-64
2022/01/02 11:46:39;;;;;;;0.50;0.50;;;;;;;;;;5015293;28;20408;-64
2022/01/02 11:49:05;;;;;;;0.40;0.40;;;;;;;;;;5015082;28;20588;-64
2022/01/02 11:51:49;;;;;;;0.40;0.40;;;;;;;;;;5014625;28;20182;-64
2022/01/02 11:54:39;;;;;;;0.40;0.40;;;;;;;;;;5014605;28;20432;-64
2022/01/02 11:57:05;;;;;;;0.40;0.40;;;;;;;;;;5014684;28;20700;-63
2022/01/02 11:59:40;;;;;;;0.40;0.40;;;;;;;;;;5014717;28;20178;-64
2022/01/02 12:02:10;;;;;;;0.40;0.40;;;;;;;;;;5014654;28;20411;-64
2022/01/02 12:05:03;;;;;;;0.40;0.40;;;;;;;;;;5014365;28;20287;-64
2022/01/02 12:07:37;;;;;;;0.40;0.40;;;;;;;;;;5006375;28;20272;-64
2022/01/02 12:10:24;;;;;;;0.40;0.40;;;;;;;;;;5014701;28;20173;-64
2022/01/02 12:13:17;;;;;;;0.40;0.40;;;;;;;;;;5013362;28;20579;-63
2022/01/02 12:15:43;;;;;;;0.40;0.40;;;;;;;;;;5014256;28;20464;-64
2022/01/02 12:18:28;;;;;;;0.40;0.40;;;;;;;;;;4995746;28;20946;-64
2022/01/02 12:20:56;;;;;;;0.40;0.40;;;;;;;;;;5014008;28;20400;-64
2022/01/02 12:26:00;;;;;;;0.40;0.40;;;;;;;;;;5014119;28;20209;-64
2022/01/02 12:28:27;;;;;;;0.40;0.40;;;;;;;;;;5014264;28;20506;-64
2022/01/02 12:30:53;;;;;;;0.40;0.40;;;;;;;;;;5014331;28;20413;-64
2022/01/02 12:33:26;;;;;;;0.40;0.40;;;;;;;;;;5014258;28;20417;-64
2022/01/02 12:35:52;;;;;;;0.40;0.40;;;;;;;;;;5013986;28;20718;-64
2022/01/02 12:38:18;;;;;;;0.40;0.40;;;;;;;;;;5013999;28;20782;-64
2022/01/02 12:40:44;;;;;;;0.40;0.40;;;;;;;;;;5013933;28;20745;-64
2022/01/02 12:43:11;;;;;;;0.40;0.40;;;;;;;;;;5013695;28;20901;-64
2022/01/02 12:45:37;;;;;;;0.40;0.40;;;;;;;;;;5013784;28;20623;-64
2022/01/02 12:48:04;;;;;;;0.40;0.40;;;;;;;;;;5013783;28;20448;-64
2022/01/02 12:50:31;;;;;;;0.40;0.40;;;;;;;;;;5013763;28;20412;-64
2022/01/02 12:52:57;;;;;;;0.40;0.40;;;;;;;;;;5013365;28;20421;-64
2022/01/02 12:55:24;;;;;;;0.40;0.40;;;;;;;;;;5013779;28;20800;-64
2022/01/02 12:57:51;;;;;;;0.40;0.40;;;;;;;;;;5013660;28;20403;-64
2022/01/02 13:00:22;;;;;;;0.40;0.40;;;;;;;;;;5013529;28;20397;-64
2022/01/02 13:02:52;;;;;;;0.40;0.40;;;;;;;;;;5013302;28;20413;-64
2022/01/02 13:05:18;;;;;;;0.30;0.30;;;;;;;;;;5013064;28;20959;-64
2022/01/02 13:07:46;;;;;;;0.40;0.40;;;;;;;;;;5013345;28;20499;-64
2022/01/02 13:10:15;;;;;;;0.40;0.40;;;;;;;;;;5013504;28;20411;-64
2022/01/02 13:12:41;;;;;;;0.40;0.40;;;;;;;;;;5012880;28;20382;-64
2022/01/02 13:15:11;;;;;;;0.40;0.40;;;;;;;;;;5012997;28;20447;-64
2022/01/02 13:17:45;;;;;;;0.40;0.40;;;;;;;;;;5013189;28;20401;-64
2022/01/02 13:20:11;;;;;;;0.40;0.40;;;;;;;;;;5013325;28;20413;-64
2022/01/02 13:22:41;;;;;;;0.40;0.40;;;;;;;;;;5013100;28;20383;-64
2022/01/02 13:25:09;;;;;;;0.30;0.30;;;;;;;;;;5013083;28;20431;-64
2022/01/02 13:27:46;;;;;;;0.40;0.40;;;;;;;;;;5013041;28;20748;-64
2022/01/02 13:30:16;;;;;;;0.40;0.40;;;;;;;;;;4995353;28;20420;-64
2022/01/02 13:32:43;;;;;;;0.40;0.40;;;;;;;;;;5012636;28;20877;-64
2022/01/02 13:35:10;;;;;;;0.40;0.40;;;;;;;;;;5011853;28;20479;-64
2022/01/02 13:37:44;;;;;;;0.30;0.30;;;;;;;;;;5012672;28;20462;-64
2022/01/02 13:40:21;;;;;;;0.40;0.40;;;;;;;;;;5012771;28;20753;-64
2022/01/02 13:42:50;;;;;;;0.40;0.40;;;;;;;;;;5012450;28;20803;-64
2022/01/02 13:45:17;;;;;;;0.40;0.40;;;;;;;;;;5012553;28;20974;-64
2022/01/02 13:47:44;;;;;;;0.40;0.40;;;;;;;;;;5012731;28;20810;-64
2022/01/02 13:50:27;;;;;;;0.40;0.40;;;;;;;;;;4995109;28;20534;-64
2022/01/02 13:52:54;;;;;;;0.40;0.40;;;;;;;;;;5012304;28;20433;-64
2022/01/02 13:55:20;;;;;;;0.40;0.40;;;;;;;;;;5012157;28;20914;-64
2022/01/02 13:57:46;;;;;;;0.40;0.40;;;;;;;;;;5012365;28;20518;-64
2022/01/02 14:00:22;;;;;;;0.40;0.40;;;;;;;;;;5012445;28;20375;-64
2022/01/02 14:02:52;;;;;;;0.30;0.30;;;;;;;;;;5012097;28;20414;-64
2022/01/02 14:05:25;;;;;;;0.40;0.40;;;;;;;;;;5012308;28;20479;-64
2022/01/02 14:07:51;;;;;;;0.40;0.40;;;;;;;;;;5012305;28;20387;-64
2022/01/02 14:10:18;;;;;;;0.40;0.40;;;;;;;;;;5011913;28;20510;-64
2022/01/02 14:12:44;;;;;;;0.30;0.30;;;;;;;;;;5010049;28;20766;-63
2022/01/02 14:15:14;;;;;;;0.40;0.40;;;;;;;;;;5011380;28;20403;-64
2022/01/02 14:17:48;;;;;;;0.40;0.40;;;;;;;;;;5012280;28;20376;-64
2022/01/02 14:20:18;;;;;;;0.40;0.40;;;;;;;;;;5011720;28;20414;-64
2022/01/02 14:22:45;;;;;;;0.40;0.40;;;;;;;;;;5011458;28;20402;-64
2022/01/02 14:25:11;;;;;;;0.40;0.40;;;;;;;;;;5011942;28;20423;-64
2022/01/02 14:27:38;;;;;;;0.40;0.40;;;;;;;;;;5010562;28;20407;-64
2022/01/02 14:30:05;;;;;;;0.40;0.40;;;;;;;;;;5011993;28;20399;-64
2022/01/02 14:32:31;;;;;;;0.40;0.40;;;;;;;;;;5011478;28;20403;-64
2022/01/02 14:34:58;;;;;;;0.40;0.40;;;;;;;;;;5011876;28;20416;-64
2022/01/02 14:37:25;;;;;;;0.40;0.40;;;;;;;;;;5011142;28;20805;-64
2022/01/02 14:39:51;;;;;;;0.40;0.40;;;;;;;;;;5011833;28;20408;-64
2022/01/02 14:42:17;;;;;;;0.40;0.40;;;;;;;;;;5011559;28;20564;-64
2022/01/02 14:44:43;;;;;;;0.40;0.40;;;;;;;;;;5011193;28;20770;-64
2022/01/02 14:47:09;;;;;;;0.40;0.40;;;;;;;;;;5011364;28;20735;-64
2022/01/02 14:49:36;;;;;;;0.40;0.40;;;;;;;;;;5011614;28;20408;-64
2022/01/02 14:52:02;;;;;;;0.40;0.40;;;;;;;;;;5011702;28;20411;-64
2022/01/02 14:54:28;;;;;;;0.40;0.40;;;;;;;;;;5011417;28;20672;-64
2022/01/02 14:56:54;;;;;;;0.40;0.40;;;;;;;;;;5011580;28;20431;-64
2022/01/02 14:59:20;;;;;;;0.40;0.40;;;;;;;;;;5011633;28;20892;-64